createdAt,value
2023-03-02T03:57:21.882Z,98422.90
2023-03-02T03:59:48.587Z,98424.75
2023-03-02T04:02:14.947Z,98421.20
2023-03-02T04:04:42.651Z,98419.70
2023-03-02T04:07:13.464Z,98424.92
2023-03-02T04:09:41.833Z,98420.02
2023-03-02T04:12:11.042Z,98417.16
2023-03-02T04:14:39.772Z,98414.80
2023-03-02T04:17:06.513Z,98414.95
2023-03-02T04:19:35.584Z,98416.65
2023-03-02T04:22:02.997Z,98416.66
2023-03-02T04:24:30.562Z,98416.99
2023-03-02T04:26:59.643Z,98414.46
2023-03-02T04:29:26.414Z,98412.43
2023-03-02T04:31:53.769Z,98409.73
2023-03-02T04:34:21.518Z,98407.54
2023-03-02T04:36:48.490Z,98402.80
2023-03-02T04:39:16.236Z,98406.35
2023-03-02T04:41:46.407Z,98404.50
2023-03-02T04:44:13.506Z,98407.02
2023-03-02T04:46:41.795Z,98404.66
2023-03-02T04:49:09.634Z,98405.17
2023-03-02T04:51:37.510Z,98406.52
2023-03-02T04:54:09.944Z,98403.83
2023-03-02T04:56:36.274Z,98405.84
2023-03-02T04:59:02.638Z,98404.84
2023-03-02T05:01:29.046Z,98404.84
2023-03-02T05:03:55.481Z,98403.31
2023-03-02T05:06:21.933Z,98405.01
2023-03-02T05:08:48.248Z,98403.49
2023-03-02T05:11:15.350Z,98402.98
2023-03-02T05:13:41.737Z,98404.83
2023-03-02T05:16:08.089Z,98407.20
2023-03-02T05:18:34.459Z,98407.71
2023-03-02T05:21:00.780Z,98412.93
2023-03-02T05:23:27.098Z,98412.25
2023-03-02T05:25:54.771Z,98411.59
2023-03-02T05:28:22.114Z,98411.25
2023-03-02T05:30:48.841Z,98413.62
2023-03-02T05:33:15.681Z,98411.77
2023-03-02T05:35:42.323Z,98413.11
2023-03-02T05:38:09.152Z,98412.27
2023-03-02T05:40:35.467Z,98414.30
2023-03-02T05:43:01.797Z,98417.33
2023-03-02T05:45:30.227Z,98415.30
2023-03-02T05:47:56.610Z,98415.48
2023-03-02T05:50:23.360Z,98417.66
2023-03-02T05:52:49.930Z,98419.17
2023-03-02T05:55:16.892Z,98420.86
2023-03-02T05:57:43.577Z,98424.39
2023-03-02T06:00:11.136Z,98427.23
2023-03-02T06:02:40.878Z,98424.33
2023-03-02T06:05:08.813Z,98427.52
2023-03-02T06:07:35.098Z,98429.52
2023-03-02T06:10:01.716Z,98426.09
2023-03-02T06:12:28.908Z,98432.13
2023-03-02T06:14:55.209Z,98431.23
2023-03-02T06:17:21.545Z,98429.81
2023-03-02T06:19:47.885Z,98429.94
2023-03-02T06:22:14.167Z,98425.34
2023-03-02T06:24:40.467Z,98423.26
2023-03-02T06:27:06.734Z,98418.10
2023-03-02T06:29:33.048Z,98418.54
2023-03-02T06:31:59.468Z,98419.11
2023-03-02T06:34:25.901Z,98426.10
2023-03-02T07:56:11.114Z,98435.05
2023-03-02T07:58:37.470Z,98432.91
2023-03-02T08:01:04.021Z,98438.98
2023-03-02T08:03:30.436Z,98438.21
2023-03-02T08:05:56.809Z,98435.91
2023-03-02T08:08:23.191Z,98437.85
2023-03-02T08:10:49.509Z,98434.76
2023-03-02T08:13:16.201Z,98431.65
2023-03-02T08:15:42.492Z,98431.40
2023-03-02T08:18:08.840Z,98427.76
2023-03-02T08:20:36.302Z,98426.60
2023-03-02T08:23:02.580Z,98425.79
2023-03-02T08:25:29.544Z,98420.75
2023-03-02T08:27:55.830Z,98423.56
2023-03-02T08:30:22.175Z,98425.48
2023-03-02T08:32:48.593Z,98423.48
2023-03-02T08:35:14.964Z,98422.30
2023-03-02T08:37:41.273Z,98421.45
2023-03-02T08:40:08.039Z,98418.05
2023-03-02T08:42:34.884Z,98413.16
2023-03-02T08:45:01.194Z,98414.71
2023-03-02T08:47:27.861Z,98411.67
2023-03-02T08:49:54.355Z,98407.76
2023-03-02T08:52:20.647Z,98405.11
2023-03-02T08:54:47.034Z,98403.22
2023-03-02T08:57:13.393Z,98402.86
2023-03-02T08:59:39.958Z,98405.20
2023-03-02T09:02:06.571Z,98406.14
2023-03-02T09:04:33.453Z,98405.27
2023-03-02T09:06:59.869Z,98405.23
2023-03-02T09:09:26.350Z,98406.73
2023-03-02T09:11:52.850Z,98401.64
2023-03-02T09:14:20.865Z,98399.91
2023-03-02T09:16:47.201Z,98397.45
2023-03-02T09:19:13.525Z,98391.91
2023-03-02T09:21:39.972Z,98389.63
2023-03-02T09:24:06.460Z,98385.98
2023-03-02T09:26:32.791Z,98386.14
2023-03-02T09:28:59.060Z,98383.70
2023-03-02T09:31:25.503Z,98382.91
2023-03-02T09:33:51.886Z,98382.28
2023-03-02T09:36:23.211Z,98381.15
2023-03-02T09:38:49.870Z,98376.71
2023-03-02T09:41:19.230Z,98375.70
2023-03-02T09:44:04.892Z,98373.27
2023-03-02T09:46:42.376Z,98370.91
2023-03-02T09:49:20.126Z,98373.73
2023-03-02T09:51:51.068Z,98374.28
2023-03-02T09:54:20.918Z,98370.42
2023-03-02T09:56:48.672Z,98368.13
2023-03-02T09:59:18.138Z,98360.71
2023-03-02T10:02:03.445Z,98363.68
2023-03-02T10:04:34.478Z,98362.45
2023-03-02T10:07:09.916Z,98363.04
2023-03-02T10:09:36.326Z,98358.17
2023-03-02T10:12:11.920Z,98355.38
2023-03-02T10:14:43.885Z,98354.98
2023-03-02T10:17:29.449Z,98356.12
2023-03-02T10:19:59.877Z,98354.50
2023-03-02T10:22:32.151Z,98349.29
2023-03-02T10:25:07.467Z,98342.76
2023-03-02T10:27:41.997Z,98342.79
2023-03-02T10:30:17.633Z,98337.69
2023-03-02T10:32:46.348Z,98337.83
2023-03-02T10:35:23.426Z,98334.04
2023-03-02T10:38:01.610Z,98331.15
2023-03-02T10:40:38.859Z,98329.92
2023-03-02T10:43:06.906Z,98327.23
2023-03-02T10:45:33.376Z,98319.27
2023-03-02T10:48:04.525Z,98318.29
2023-03-02T10:54:29.546Z,98311.45
2023-03-02T11:25:23.041Z,98274.60
2023-03-02T11:27:51.703Z,98271.58
2023-03-02T11:30:22.605Z,98269.13
2023-03-02T12:00:36.707Z,98228.75
2023-03-02T12:03:07.451Z,98227.11
2023-03-02T12:05:35.887Z,98224.42
2023-03-02T12:08:07.034Z,98222.91
2023-03-02T12:10:37.972Z,98219.63
2023-03-02T12:13:22.635Z,98216.58
2023-03-02T12:15:49.535Z,98218.42
2023-03-02T12:18:26.966Z,98214.53
2023-03-02T12:21:02.944Z,98210.19
2023-03-02T12:23:30.300Z,98209.42
2023-03-02T12:26:08.004Z,98207.03
2023-03-02T12:28:36.053Z,98202.46
2023-03-02T12:31:07.560Z,98198.45
2023-03-02T12:33:38.196Z,98194.39
2023-03-02T12:36:15.960Z,98193.86
2023-03-02T12:38:43.609Z,98186.32
2023-03-02T12:41:09.941Z,98183.31
2023-03-02T12:43:37.632Z,98183.94
2023-03-02T12:46:24.773Z,98183.52
2023-03-02T12:49:10.773Z,98175.14
2023-03-02T12:51:47.404Z,98173.56
2023-03-02T12:54:22.575Z,98168.34
2023-03-02T12:56:49.830Z,98166.59
2023-03-02T12:59:21.033Z,98162.89
2023-03-02T13:01:47.464Z,98154.96
2023-03-02T13:04:24.857Z,98152.97
2023-03-02T13:06:52.647Z,98153.96
2023-03-02T13:09:19.300Z,98152.05
2023-03-02T13:11:46.468Z,98147.02
2023-03-02T13:14:17.746Z,98147.79
2023-03-02T13:16:53.379Z,98145.08
2023-03-02T13:19:20.207Z,98141.66
2023-03-02T13:52:39.573Z,98118.95
2023-03-02T13:55:11.926Z,98121.90
2023-03-02T13:57:38.339Z,98118.00
2023-03-02T14:00:04.982Z,98114.27
2023-03-02T14:02:33.916Z,98113.52
2023-03-02T14:05:00.711Z,98112.20
2023-03-02T14:07:27.066Z,98109.83
2023-03-02T14:09:53.829Z,98103.50
2023-03-02T14:12:28.837Z,98100.09
2023-03-02T14:14:56.764Z,98094.90
2023-03-02T14:17:24.334Z,98093.87
2023-03-02T14:19:51.032Z,98094.31
2023-03-02T14:22:45.472Z,98089.68
2023-03-02T14:25:12.050Z,98088.70
2023-03-02T14:27:39.237Z,98089.92
2023-03-02T14:30:32.561Z,98089.14
2023-03-02T14:33:00.108Z,98085.67
2023-03-02T14:35:26.698Z,98086.51
2023-03-02T14:37:53.265Z,98081.27
2023-03-02T14:40:22.914Z,98078.26
2023-03-02T14:42:50.830Z,98075.07
2023-03-02T14:45:17.249Z,98077.48
2023-03-02T14:47:44.761Z,98076.34
2023-03-02T14:50:11.641Z,98078.97
2023-03-02T14:52:41.010Z,98077.94
2023-03-02T14:55:14.903Z,98079.65
2023-03-02T14:57:41.658Z,98072.59
2023-03-02T15:00:12.293Z,98075.02
2023-03-02T15:02:43.502Z,98075.83
2023-03-02T15:05:20.395Z,98072.59
2023-03-02T15:07:47.351Z,98073.23
2023-03-02T15:10:15.074Z,98070.77
2023-03-02T15:12:42.130Z,98068.69
2023-03-02T15:15:09.197Z,98067.98
2023-03-02T15:17:35.535Z,98064.41
2023-03-02T15:20:01.920Z,98066.88
2023-03-02T15:22:28.317Z,98067.91
2023-03-02T15:24:54.777Z,98065.84
2023-03-02T15:27:21.622Z,98066.54
2023-03-02T15:29:48.001Z,98071.19
2023-03-02T15:32:14.884Z,98074.23
2023-03-02T15:34:41.339Z,98074.95
2023-03-02T15:37:08.879Z,98073.95
2023-03-02T15:39:35.175Z,98079.16
2023-03-02T15:42:01.510Z,98080.18
2023-03-02T15:44:27.968Z,98079.31
2023-03-02T15:46:55.085Z,98083.30
2023-03-02T15:49:21.603Z,98085.37
2023-03-02T15:51:48.443Z,98085.38
2023-03-02T15:54:15.006Z,98086.77
2023-03-02T15:56:44.394Z,98089.73
2023-03-02T15:59:11.228Z,98090.64
2023-03-02T16:01:37.627Z,98090.40
2023-03-02T16:04:04.015Z,98093.59
2023-03-02T16:06:30.416Z,98090.47
2023-03-02T16:08:56.764Z,98092.05
2023-03-02T16:11:24.166Z,98093.94
2023-03-02T16:13:50.718Z,98089.98
2023-03-02T16:16:18.013Z,98095.79
2023-03-02T16:18:54.653Z,98090.94
2023-03-02T16:21:21.554Z,98089.66
2023-03-02T16:23:48.266Z,98093.04
2023-03-02T16:26:15.788Z,98092.84
2023-03-02T16:28:42.252Z,98090.90
2023-03-02T16:31:10.506Z,98091.71
2023-03-02T16:33:37.399Z,98091.35
2023-03-02T16:36:04.035Z,98090.50
2023-03-02T16:38:30.407Z,98093.17
2023-03-02T16:40:57.256Z,98093.21
2023-03-02T16:43:23.820Z,98092.30
2023-03-02T16:45:50.902Z,98095.11
2023-03-02T16:48:17.541Z,98096.70
2023-03-02T16:50:45.295Z,98097.97
2023-03-02T16:53:11.612Z,98095.20
2023-03-02T16:55:38.298Z,98097.19
2023-03-02T16:58:04.748Z,98097.36
2023-03-02T17:00:31.083Z,98097.26
2023-03-02T17:02:58.256Z,98101.37
2023-03-02T17:05:24.699Z,98103.01
2023-03-02T17:07:50.979Z,98103.39
2023-03-02T17:10:19.591Z,98107.48
2023-03-02T17:12:46.768Z,98105.44
2023-03-02T17:15:13.667Z,98108.77
2023-03-02T17:17:40.778Z,98108.59
2023-03-02T17:20:08.438Z,98111.77
2023-03-02T17:22:34.811Z,98111.41
2023-03-02T17:25:03.486Z,98113.88
2023-03-02T17:27:31.580Z,98115.91
2023-03-02T17:29:57.935Z,98116.83
2023-03-02T17:32:24.708Z,98119.95
2023-03-02T17:34:51.267Z,98122.09
2023-03-02T17:37:17.651Z,98120.05
2023-03-02T17:39:44.052Z,98120.91
2023-03-02T17:42:10.500Z,98124.80
2023-03-02T17:44:37.859Z,98123.73
2023-03-02T17:47:04.465Z,98122.31
2023-03-02T17:49:31.318Z,98125.14
2023-03-02T17:51:57.661Z,98122.69
2023-03-02T17:54:24.463Z,98122.07
2023-03-02T17:56:50.916Z,98121.08
2023-03-02T17:59:17.556Z,98120.64
2023-03-02T18:01:44.167Z,98119.88
2023-03-02T18:04:10.623Z,98118.35
2023-03-02T18:06:37.014Z,98120.64
2023-03-02T18:09:03.982Z,98122.22
2023-03-02T18:11:30.867Z,98119.88
2023-03-02T18:13:57.194Z,98117.73
2023-03-02T18:16:24.493Z,98120.61
2023-03-02T18:18:53.581Z,98120.59
2023-03-02T18:21:20.709Z,98123.45
2023-03-02T18:23:47.034Z,98124.89
2023-03-02T18:26:14.385Z,98123.97
2023-03-02T18:28:40.900Z,98124.89
2023-03-02T18:31:07.382Z,98127.05
2023-03-02T18:33:36.587Z,98129.02
2023-03-02T18:36:03.077Z,98128.68
2023-03-02T18:38:29.721Z,98131.87
2023-03-02T18:40:57.660Z,98128.11
2023-03-02T18:43:24.313Z,98128.05
2023-03-02T18:45:51.158Z,98129.14
2023-03-02T18:48:17.748Z,98130.75
2023-03-02T18:50:44.210Z,98128.38
2023-03-02T18:53:12.867Z,98128.08
2023-03-02T18:55:42.098Z,98127.11
2023-03-02T18:58:15.541Z,98130.58
2023-03-02T19:00:41.928Z,98130.02
2023-03-02T19:03:08.701Z,98132.27
2023-03-02T19:05:35.960Z,98131.80
2023-03-02T19:08:02.285Z,98132.56
2023-03-02T19:10:28.727Z,98133.38
2023-03-02T19:12:55.145Z,98135.73
2023-03-02T19:15:21.551Z,98133.73
2023-03-02T19:17:48.312Z,98136.70
2023-03-02T19:20:17.553Z,98138.09
2023-03-02T19:22:44.008Z,98134.48
2023-03-02T19:25:10.700Z,98131.55
2023-03-02T19:27:37.176Z,98132.73
2023-03-02T19:30:04.581Z,98132.33
2023-03-02T19:32:30.998Z,98130.41
2023-03-02T19:34:57.377Z,98132.20
2023-03-02T19:37:23.736Z,98131.42
2023-03-02T19:39:50.673Z,98133.34
2023-03-02T19:42:17.210Z,98136.08
2023-03-02T19:44:43.637Z,98138.30
2023-03-02T19:47:10.196Z,98136.61
2023-03-02T19:49:36.669Z,98134.61
2023-03-02T19:52:03.410Z,98135.42
2023-03-02T19:54:29.810Z,98135.73
2023-03-02T19:56:56.275Z,98137.19
2023-03-02T19:59:23.214Z,98141.40
2023-03-02T20:01:50.708Z,98139.84
2023-03-02T20:04:17.371Z,98138.30
2023-03-02T20:06:44.434Z,98140.80
2023-03-02T20:09:11.230Z,98139.89
2023-03-02T20:11:37.781Z,98141.17
2023-03-02T20:14:04.399Z,98137.67
2023-03-02T20:16:32.447Z,98134.98
2023-03-02T20:18:59.458Z,98135.70
2023-03-02T20:21:25.863Z,98132.31
2023-03-02T20:23:53.083Z,98135.23
2023-03-02T20:26:21.085Z,98130.50
2023-03-02T20:28:47.842Z,98133.00
2023-03-02T20:31:14.833Z,98131.57
2023-03-02T20:33:44.010Z,98131.14
2023-03-02T20:36:13.977Z,98130.23
2023-03-02T20:38:45.809Z,98128.69
2023-03-02T20:41:13.117Z,98128.48
2023-03-02T20:43:39.776Z,98125.55
2023-03-02T20:46:07.351Z,98123.56
2023-03-02T20:48:34.146Z,98122.60
2023-03-02T20:51:00.840Z,98119.27
2023-03-02T20:53:27.856Z,98117.10
2023-03-02T20:55:55.560Z,98118.23
2023-03-02T20:58:21.912Z,98117.66
2023-03-02T21:00:48.376Z,98119.33
2023-03-02T21:03:14.894Z,98118.41
2023-03-02T21:05:41.783Z,98113.02
2023-03-02T21:08:10.964Z,98112.20
2023-03-02T21:10:37.438Z,98109.67
2023-03-02T21:13:05.021Z,98112.23
2023-03-02T21:15:31.597Z,98113.94
2023-03-02T21:17:57.981Z,98109.56
2023-03-02T21:20:26.541Z,98107.44
2023-03-02T21:22:52.917Z,98100.08
2023-03-02T21:25:19.553Z,98102.22
2023-03-02T21:27:46.412Z,98099.22
2023-03-02T21:30:17.717Z,98097.38
2023-03-02T21:32:44.037Z,98097.23
2023-03-02T21:35:11.841Z,98092.52
2023-03-02T21:37:39.180Z,98085.40
2023-03-02T21:40:06.264Z,98084.88
2023-03-02T21:42:32.696Z,98082.11
2023-03-02T21:44:59.098Z,98077.52
2023-03-02T21:47:25.431Z,98073.13
2023-03-02T21:49:51.800Z,98071.31
2023-03-02T21:52:18.223Z,98071.03
2023-03-02T21:54:44.564Z,98065.66
2023-03-02T21:57:10.904Z,98064.05
2023-03-02T21:59:37.474Z,98062.59
2023-03-02T22:02:04.203Z,98063.65
2023-03-02T22:04:30.618Z,98062.35
2023-03-02T22:06:58.119Z,98061.34
2023-03-02T22:09:24.427Z,98066.44
2023-03-02T22:11:50.718Z,98062.29
2023-03-02T22:14:17.157Z,98061.19
2023-03-02T22:16:44.950Z,98066.19
2023-03-02T22:19:21.585Z,98061.48
2023-03-02T22:21:48.290Z,98061.92
2023-03-02T22:24:19.696Z,98061.66
2023-03-02T22:26:48.890Z,98056.84
2023-03-02T22:29:34.187Z,98055.95
2023-03-02T22:32:11.783Z,98054.56
2023-03-02T22:34:39.753Z,98049.50
2023-03-02T22:37:10.921Z,98048.93
2023-03-02T22:39:37.286Z,98051.34
2023-03-02T22:42:11.845Z,98046.46
2023-03-02T22:44:38.627Z,98046.19
2023-03-02T22:47:23.611Z,98050.34
2023-03-02T22:49:55.070Z,98046.48
2023-03-02T22:52:22.800Z,98048.58
2023-03-02T22:54:49.187Z,98044.71
2023-03-02T22:57:23.155Z,98037.16
2023-03-02T22:59:49.652Z,98034.32
2023-03-02T23:02:17.231Z,98035.33
2023-03-02T23:04:44.788Z,98035.17
2023-03-02T23:07:13.282Z,98035.71
2023-03-02T23:09:39.749Z,98030.94
2023-03-02T23:12:29.546Z,98026.85
2023-03-02T23:14:56.949Z,98029.56
2023-03-02T23:17:23.426Z,98030.61
2023-03-02T23:19:50.537Z,98025.90
2023-03-02T23:22:17.271Z,98022.04
2023-03-02T23:24:43.630Z,98019.36
2023-03-02T23:27:10.693Z,98024.16
2023-03-02T23:29:37.062Z,98022.34
2023-03-02T23:32:03.581Z,98015.27
2023-03-02T23:34:30.336Z,98012.28
2023-03-02T23:36:57.427Z,98013.48
2023-03-02T23:39:23.829Z,98013.02
2023-03-02T23:41:50.412Z,98012.57
2023-03-02T23:44:17.372Z,98010.08
2023-03-02T23:46:43.756Z,98007.94
2023-03-02T23:49:10.227Z,98006.60
2023-03-02T23:51:36.596Z,98006.07
2023-03-02T23:54:04.772Z,98006.89
2023-03-02T23:56:31.295Z,98009.42
2023-03-02T23:58:57.638Z,98007.23
